Sand Coulee, Montana
Current Conditions -  °F | °C
As of 2:56 PM on Sunday 23 Nov 2014 (Local Time) from KGFA Reporting Station
Clear Clear  
Wind Chill: 34°   Ceiling: Unl
Heat Index: 41°   Visibility: 10mi
Dew Point: 17°   Wind: 14mph
Humidity: 38%   Direction: 240°WSW
Pressure: 29.87"   Gusts: NA
Location:  47.4°N, 111.17°W
Report Text: KGFA 232156Z AUTO 24012KT 10SM CLR 05/M08 A2987 RMK AO2 PK WND 26029/02 SLP140 T00511082
Loading
Personal Weather Stations






























Interactive Weather Map New forecast layout! Learn more

10-Day Weather Forecast

Advertisements
Track Severe Weather on mobile